sensor_id;sensor_type;location;lat;lon;timestamp;pressure;altitude;pressure_sealevel;temperature;humidity
21504;BME280;10913;51.992;9.228;2023-03-08T00:00:32;98704.19;;;1.90;100.00
21504;BME280;10913;51.992;9.228;2023-03-08T00:02:57;98703.31;;;1.88;100.00
21504;BME280;10913;51.992;9.228;2023-03-08T00:05:23;98706.78;;;1.90;100.00
21504;BME280;10913;51.992;9.228;2023-03-08T00:07:51;98706.78;;;1.90;100.00
21504;BME280;10913;51.992;9.228;2023-03-08T00:10:16;98700.72;;;1.92;100.00
21504;BME280;10913;51.992;9.228;2023-03-08T00:12:42;98705.06;;;1.92;100.00
21504;BME280;10913;51.992;9.228;2023-03-08T00:15:08;98699.00;;;1.91;100.00
21504;BME280;10913;51.992;9.228;2023-03-08T00:17:35;98705.94;;;1.92;100.00
21504;BME280;10913;51.992;9.228;2023-03-08T00:20:02;98708.53;;;1.92;100.00
21504;BME280;10913;51.992;9.228;2023-03-08T00:22:34;98707.69;;;1.93;100.00
21504;BME280;10913;51.992;9.228;2023-03-08T00:24:59;98712.00;;;1.93;100.00
21504;BME280;10913;51.992;9.228;2023-03-08T00:27:25;98715.47;;;1.92;100.00
21504;BME280;10913;51.992;9.228;2023-03-08T00:29:50;98726.75;;;1.92;100.00
21504;BME280;10913;51.992;9.228;2023-03-08T00:32:15;98724.16;;;1.94;100.00
21504;BME280;10913;51.992;9.228;2023-03-08T00:34:41;98723.28;;;1.93;100.00
21504;BME280;10913;51.992;9.228;2023-03-08T00:37:10;98722.41;;;1.91;100.00
21504;BME280;10913;51.992;9.228;2023-03-08T00:39:35;98726.75;;;1.91;100.00
21504;BME280;10913;51.992;9.228;2023-03-08T00:42:01;98722.41;;;1.90;100.00
21504;BME280;10913;51.992;9.228;2023-03-08T00:44:26;98734.56;;;1.88;100.00
21504;BME280;10913;51.992;9.228;2023-03-08T00:46:51;98739.75;;;1.88;100.00
21504;BME280;10913;51.992;9.228;2023-03-08T00:49:17;98725.00;;;1.85;100.00
21504;BME280;10913;51.992;9.228;2023-03-08T00:51:42;98733.69;;;1.86;100.00
21504;BME280;10913;51.992;9.228;2023-03-08T00:54:07;98730.19;;;1.82;100.00
21504;BME280;10913;51.992;9.228;2023-03-08T00:56:33;98730.19;;;1.82;100.00
21504;BME280;10913;51.992;9.228;2023-03-08T00:58:58;98729.34;;;1.85;100.00
21504;BME280;10913;51.992;9.228;2023-03-08T01:01:23;98730.19;;;1.84;100.00
21504;BME280;10913;51.992;9.228;2023-03-08T01:03:49;98720.66;;;1.84;100.00
21504;BME280;10913;51.992;9.228;2023-03-08T01:06:14;98718.91;;;1.83;100.00
21504;BME280;10913;51.992;9.228;2023-03-08T01:08:40;98728.44;;;1.81;100.00
21504;BME280;10913;51.992;9.228;2023-03-08T01:11:06;98722.38;;;1.81;100.00
21504;BME280;10913;51.992;9.228;2023-03-08T01:13:36;98723.25;;;1.78;100.00
21504;BME280;10913;51.992;9.228;2023-03-08T01:16:02;98718.06;;;1.78;100.00
21504;BME280;10913;51.992;9.228;2023-03-08T01:18:27;98719.81;;;1.79;100.00
21504;BME280;10913;51.992;9.228;2023-03-08T01:21:03;98719.78;;;1.81;100.00
21504;BME280;10913;51.992;9.228;2023-03-08T01:23:30;98715.47;;;1.80;100.00
21504;BME280;10913;51.992;9.228;2023-03-08T01:26:07;98707.63;;;1.83;100.00
21504;BME280;10913;51.992;9.228;2023-03-08T01:28:33;98708.50;;;1.82;100.00
21504;BME280;10913;51.992;9.228;2023-03-08T01:31:14;98720.66;;;1.81;100.00
21504;BME280;10913;51.992;9.228;2023-03-08T01:33:41;98710.22;;;1.81;100.00
21504;BME280;10913;51.992;9.228;2023-03-08T01:36:09;98702.41;;;1.81;100.00
21504;BME280;10913;51.992;9.228;2023-03-08T01:38:35;98701.56;;;1.81;100.00
21504;BME280;10913;51.992;9.228;2023-03-08T01:41:02;98698.09;;;1.82;100.00
21504;BME280;10913;51.992;9.228;2023-03-08T01:43:39;98711.13;;;1.77;100.00
21504;BME280;10913;51.992;9.228;2023-03-08T01:46:34;98705.03;;;1.73;100.00
21504;BME280;10913;51.992;9.228;2023-03-08T01:53:55;98691.13;;;1.70;100.00
21504;BME280;10913;51.992;9.228;2023-03-08T01:56:22;98698.06;;;1.71;100.00
21504;BME280;10913;51.992;9.228;2023-03-08T01:58:49;98684.19;;;1.67;100.00
21504;BME280;10913;51.992;9.228;2023-03-08T02:01:17;98691.09;;;1.65;100.00
21504;BME280;10913;51.992;9.228;2023-03-08T02:03:44;98697.19;;;1.64;100.00
21504;BME280;10913;51.992;9.228;2023-03-08T02:06:10;98690.25;;;1.66;100.00
21504;BME280;10913;51.992;9.228;2023-03-08T02:08:36;98689.38;;;1.64;100.00
21504;BME280;10913;51.992;9.228;2023-03-08T02:11:02;98689.38;;;1.64;100.00
21504;BME280;10913;51.992;9.228;2023-03-08T02:13:27;98690.25;;;1.65;100.00
21504;BME280;10913;51.992;9.228;2023-03-08T02:15:54;98692.84;;;1.66;100.00
21504;BME280;10913;51.992;9.228;2023-03-08T02:18:21;98688.53;;;1.68;100.00
21504;BME280;10913;51.992;9.228;2023-03-08T02:20:47;98688.50;;;1.65;100.00
21504;BME280;10913;51.992;9.228;2023-03-08T02:23:13;98694.59;;;1.66;100.00
21504;BME280;10913;51.992;9.228;2023-03-08T02:25:39;98687.63;;;1.63;100.00
21504;BME280;10913;51.992;9.228;2023-03-08T02:28:05;98689.38;;;1.64;100.00
21504;BME280;10913;51.992;9.228;2023-03-08T02:30:36;98683.28;;;1.62;100.00
21504;BME280;10913;51.992;9.228;2023-03-08T02:33:02;98672.88;;;1.61;100.00
21504;BME280;10913;51.992;9.228;2023-03-08T02:35:29;98686.75;;;1.63;100.00
21504;BME280;10913;51.992;9.228;2023-03-08T02:37:54;98679.84;;;1.65;100.00
21504;BME280;10913;51.992;9.228;2023-03-08T02:40:20;98689.34;;;1.61;100.00
21504;BME280;10913;51.992;9.228;2023-03-08T02:42:45;98678.97;;;1.64;100.00
21504;BME280;10913;51.992;9.228;2023-03-08T02:45:11;98679.81;;;1.62;100.00
21504;BME280;10913;51.992;9.228;2023-03-08T02:47:36;98688.47;;;1.61;100.00
21504;BME280;10913;51.992;9.228;2023-03-08T02:50:02;98680.72;;;1.59;100.00
21504;BME280;10913;51.992;9.228;2023-03-08T02:52:28;98685.91;;;1.59;100.00
21504;BME280;10913;51.992;9.228;2023-03-08T02:54:53;98675.50;;;1.58;100.00
21504;BME280;10913;51.992;9.228;2023-03-08T02:57:19;98675.47;;;1.53;100.00
21504;BME280;10913;51.992;9.228;2023-03-08T02:59:45;98677.19;;;1.50;100.00
21504;BME280;10913;51.992;9.228;2023-03-08T03:02:10;98672.84;;;1.47;100.00
21504;BME280;10913;51.992;9.228;2023-03-08T03:04:36;98677.19;;;1.51;100.00
21504;BME280;10913;51.992;9.228;2023-03-08T03:07:02;98668.53;;;1.49;100.00
21504;BME280;10913;51.992;9.228;2023-03-08T03:09:28;98665.06;;;1.50;100.00
21504;BME280;10913;51.992;9.228;2023-03-08T03:11:53;98661.59;;;1.50;100.00
21504;BME280;10913;51.992;9.228;2023-03-08T03:14:19;98662.47;;;1.53;100.00
21504;BME280;10913;51.992;9.228;2023-03-08T03:16:44;98665.06;;;1.53;100.00
21504;BME280;10913;51.992;9.228;2023-03-08T03:19:09;98672.00;;;1.54;100.00
21504;BME280;10913;51.992;9.228;2023-03-08T03:21:37;98657.25;;;1.53;100.00
21504;BME280;10913;51.992;9.228;2023-03-08T03:24:03;98665.06;;;1.53;100.00
21504;BME280;10913;51.992;9.228;2023-03-08T03:26:28;98659.88;;;1.53;100.00
21504;BME280;10913;51.992;9.228;2023-03-08T03:28:58;98668.53;;;1.52;100.00
21504;BME280;10913;51.992;9.228;2023-03-08T03:31:24;98663.31;;;1.52;100.00
21504;BME280;10913;51.992;9.228;2023-03-08T03:33:50;98666.78;;;1.48;100.00
21504;BME280;10913;51.992;9.228;2023-03-08T03:36:19;98665.91;;;1.46;100.00
21504;BME280;10913;51.992;9.228;2023-03-08T03:38:45;98659.81;;;1.44;100.00
21504;BME280;10913;51.992;9.228;2023-03-08T03:41:13;98658.94;;;1.44;100.00
21504;BME280;10913;51.992;9.228;2023-03-08T03:43:39;98663.28;;;1.43;100.00
21504;BME280;10913;51.992;9.228;2023-03-08T03:46:07;98660.69;;;1.43;100.00
21504;BME280;10913;51.992;9.228;2023-03-08T03:48:34;98671.09;;;1.45;100.00
21504;BME280;10913;51.992;9.228;2023-03-08T03:51:03;98665.03;;;1.44;100.00
21504;BME280;10913;51.992;9.228;2023-03-08T03:53:30;98665.03;;;1.44;100.00
21504;BME280;10913;51.992;9.228;2023-03-08T03:56:02;98663.28;;;1.43;100.00
21504;BME280;10913;51.992;9.228;2023-03-08T03:58:28;98666.75;;;1.42;100.00
21504;BME280;10913;51.992;9.228;2023-03-08T04:00:53;98677.16;;;1.41;100.00
21504;BME280;10913;51.992;9.228;2023-03-08T04:03:20;98669.38;;;1.39;100.00
21504;BME280;10913;51.992;9.228;2023-03-08T04:05:45;98669.34;;;1.37;100.00
21504;BME280;10913;51.992;9.228;2023-03-08T04:08:11;98671.09;;;1.35;100.00
21504;BME280;10913;51.992;9.228;2023-03-08T04:10:36;98670.19;;;1.32;100.00
21504;BME280;10913;51.992;9.228;2023-03-08T04:13:02;98678.88;;;1.31;100.00
21504;BME280;10913;51.992;9.228;2023-03-08T04:15:27;98675.38;;;1.30;100.00
21504;BME280;10913;51.992;9.228;2023-03-08T04:17:53;98671.06;;;1.29;100.00
21504;BME280;10913;51.992;9.228;2023-03-08T04:20:18;98666.72;;;1.28;100.00
21504;BME280;10913;51.992;9.228;2023-03-08T04:22:44;98654.56;;;1.26;100.00
21504;BME280;10913;51.992;9.228;2023-03-08T04:25:09;98653.69;;;1.24;100.00
21504;BME280;10913;51.992;9.228;2023-03-08T04:27:35;98653.66;;;1.21;100.00
21504;BME280;10913;51.992;9.228;2023-03-08T04:30:01;98647.63;;;1.19;100.00
21504;BME280;10913;51.992;9.228;2023-03-08T04:32:26;98657.13;;;1.15;100.00
21504;BME280;10913;51.992;9.228;2023-03-08T04:34:52;98653.66;;;1.13;100.00
21504;BME280;10913;51.992;9.228;2023-03-08T04:37:17;98649.31;;;1.14;100.00
21504;BME280;10913;51.992;9.228;2023-03-08T04:39:42;98653.66;;;1.15;100.00
21504;BME280;10913;51.992;9.228;2023-03-08T04:42:08;98647.59;;;1.16;100.00
21504;BME280;10913;51.992;9.228;2023-03-08T04:44:33;98650.19;;;1.16;100.00
21504;BME280;10913;51.992;9.228;2023-03-08T04:46:58;98652.81;;;1.16;100.00
21504;BME280;10913;51.992;9.228;2023-03-08T04:49:24;98663.19;;;1.16;100.00
21504;BME280;10913;51.992;9.228;2023-03-08T04:51:50;98658.84;;;1.13;100.00
21504;BME280;10913;51.992;9.228;2023-03-08T04:54:15;98653.66;;;1.13;100.00
21504;BME280;10913;51.992;9.228;2023-03-08T04:56:40;98652.78;;;1.14;100.00
21504;BME280;10913;51.992;9.228;2023-03-08T04:59:06;98641.53;;;1.14;100.00
21504;BME280;10913;51.992;9.228;2023-03-08T05:01:31;98646.72;;;1.15;100.00
21504;BME280;10913;51.992;9.228;2023-03-08T05:03:57;98638.06;;;1.15;100.00
21504;BME280;10913;51.992;9.228;2023-03-08T05:06:24;98648.47;;;1.15;100.00
21504;BME280;10913;51.992;9.228;2023-03-08T05:08:52;98640.66;;;1.15;100.00
21504;BME280;10913;51.992;9.228;2023-03-08T05:11:25;98639.78;;;1.14;100.00
21504;BME280;10913;51.992;9.228;2023-03-08T05:13:52;98634.56;;;1.11;100.00
21504;BME280;10913;51.992;9.228;2023-03-08T05:16:18;98627.63;;;1.09;100.00
21504;BME280;10913;51.992;9.228;2023-03-08T05:18:44;98612.00;;;1.06;100.00
21504;BME280;10913;51.992;9.228;2023-03-08T05:21:12;98605.94;;;1.07;100.00
21504;BME280;10913;51.992;9.228;2023-03-08T05:23:37;98617.22;;;1.09;100.00
21504;BME280;10913;51.992;9.228;2023-03-08T05:26:04;98625.03;;;1.12;100.00
21504;BME280;10913;51.992;9.228;2023-03-08T05:28:32;98623.31;;;1.11;100.00
21504;BME280;10913;51.992;9.228;2023-03-08T05:31:03;98618.97;;;1.11;100.00
21504;BME280;10913;51.992;9.228;2023-03-08T05:33:28;98622.44;;;1.13;100.00
21504;BME280;10913;51.992;9.228;2023-03-08T05:35:54;98621.59;;;1.13;100.00
21504;BME280;10913;51.992;9.228;2023-03-08T05:38:21;98622.44;;;1.13;100.00
21504;BME280;10913;51.992;9.228;2023-03-08T05:40:47;98621.59;;;1.16;100.00
21504;BME280;10913;51.992;9.228;2023-03-08T05:43:12;98629.41;;;1.17;100.00
21504;BME280;10913;51.992;9.228;2023-03-08T05:45:37;98617.28;;;1.18;100.00
21504;BME280;10913;51.992;9.228;2023-03-08T05:48:03;98617.25;;;1.21;100.00
21504;BME280;10913;51.992;9.228;2023-03-08T05:50:28;98619.84;;;1.21;100.00
21504;BME280;10913;51.992;9.228;2023-03-08T05:52:54;98624.22;;;1.23;100.00
21504;BME280;10913;51.992;9.228;2023-03-08T05:55:19;98611.22;;;1.25;100.00
21504;BME280;10913;51.992;9.228;2023-03-08T05:57:44;98612.09;;;1.27;100.00
21504;BME280;10913;51.992;9.228;2023-03-08T06:00:10;98599.94;;;1.26;100.00
21504;BME280;10913;51.992;9.228;2023-03-08T06:02:36;98593.88;;;1.27;100.00
21504;BME280;10913;51.992;9.228;2023-03-08T06:05:01;98599.09;;;1.27;100.00
21504;BME280;10913;51.992;9.228;2023-03-08T06:07:27;98587.81;;;1.26;100.00
21504;BME280;10913;51.992;9.228;2023-03-08T06:09:52;98589.53;;;1.27;100.00
21504;BME280;10913;51.992;9.228;2023-03-08T06:12:18;98589.53;;;1.26;100.00
21504;BME280;10913;51.992;9.228;2023-03-08T06:14:44;98582.59;;;1.26;100.00
21504;BME280;10913;51.992;9.228;2023-03-08T06:17:09;98585.22;;;1.26;100.00
21504;BME280;10913;51.992;9.228;2023-03-08T06:19:34;98586.06;;;1.27;100.00
21504;BME280;10913;51.992;9.228;2023-03-08T06:22:00;98582.59;;;1.26;100.00
21504;BME280;10913;51.992;9.228;2023-03-08T06:24:25;98578.28;;;1.27;100.00
21504;BME280;10913;51.992;9.228;2023-03-08T06:26:50;98574.81;;;1.25;100.00
21504;BME280;10913;51.992;9.228;2023-03-08T06:29:17;98567.00;;;1.26;100.00
21504;BME280;10913;51.992;9.228;2023-03-08T06:31:42;98580.00;;;1.28;100.00
21504;BME280;10913;51.992;9.228;2023-03-08T06:34:07;98572.22;;;1.28;100.00
21504;BME280;10913;51.992;9.228;2023-03-08T06:36:33;98571.34;;;1.29;100.00
21504;BME280;10913;51.992;9.228;2023-03-08T06:38:58;98566.16;;;1.30;100.00
21504;BME280;10913;51.992;9.228;2023-03-08T06:41:24;98564.44;;;1.34;100.00
21504;BME280;10913;51.992;9.228;2023-03-08T06:43:49;98563.56;;;1.36;100.00
21504;BME280;10913;51.992;9.228;2023-03-08T06:46:16;98552.31;;;1.39;100.00
21504;BME280;10913;51.992;9.228;2023-03-08T06:48:43;98554.03;;;1.43;100.00
21504;BME280;10913;51.992;9.228;2023-03-08T06:51:08;98554.91;;;1.45;100.00
21504;BME280;10913;51.992;9.228;2023-03-08T06:53:34;98559.25;;;1.49;100.00
21504;BME280;10913;51.992;9.228;2023-03-08T06:56:00;98562.72;;;1.48;100.00
21504;BME280;10913;51.992;9.228;2023-03-08T06:58:27;98554.91;;;1.50;100.00
21504;BME280;10913;51.992;9.228;2023-03-08T07:00:53;98558.38;;;1.50;100.00
21504;BME280;10913;51.992;9.228;2023-03-08T07:03:19;98554.91;;;1.51;100.00
21504;BME280;10913;51.992;9.228;2023-03-08T07:05:44;98555.78;;;1.53;100.00
21504;BME280;10913;51.992;9.228;2023-03-08T07:08:09;98554.06;;;1.55;100.00
21504;BME280;10913;51.992;9.228;2023-03-08T07:10:35;98554.06;;;1.58;100.00
21504;BME280;10913;51.992;9.228;2023-03-08T07:13:02;98542.78;;;1.59;100.00
21504;BME280;10913;51.992;9.228;2023-03-08T07:15:27;98541.91;;;1.60;100.00
21504;BME280;10913;51.992;9.228;2023-03-08T07:17:54;98537.59;;;1.59;100.00
21504;BME280;10913;51.992;9.228;2023-03-08T07:20:22;98542.78;;;1.56;100.00
21504;BME280;10913;51.992;9.228;2023-03-08T07:22:48;98531.50;;;1.57;100.00
21504;BME280;10913;51.992;9.228;2023-03-08T07:25:16;98534.97;;;1.59;100.00
21504;BME280;10913;51.992;9.228;2023-03-08T07:27:42;98534.13;;;1.59;100.00
21504;BME280;10913;51.992;9.228;2023-03-08T07:30:09;98532.38;;;1.64;100.00
21504;BME280;10913;51.992;9.228;2023-03-08T07:32:36;98534.09;;;1.66;100.00
21504;BME280;10913;51.992;9.228;2023-03-08T07:35:04;98531.50;;;1.66;100.00
21504;BME280;10913;51.992;9.228;2023-03-08T07:37:30;98517.63;;;1.67;100.00
21504;BME280;10913;51.992;9.228;2023-03-08T07:39:55;98521.97;;;1.70;100.00
21504;BME280;10913;51.992;9.228;2023-03-08T07:42:20;98515.03;;;1.69;100.00
21504;BME280;10913;51.992;9.228;2023-03-08T07:44:46;98515.03;;;1.72;100.00
21504;BME280;10913;51.992;9.228;2023-03-08T07:47:11;98519.38;;;1.78;100.00
21504;BME280;10913;51.992;9.228;2023-03-08T07:49:38;98513.28;;;1.83;100.00
21504;BME280;10913;51.992;9.228;2023-03-08T07:52:03;98508.06;;;1.88;100.00
21504;BME280;10913;51.992;9.228;2023-03-08T07:54:29;98507.19;;;1.92;100.00
21504;BME280;10913;51.992;9.228;2023-03-08T07:56:54;98502.00;;;1.96;100.00
21504;BME280;10913;51.992;9.228;2023-03-08T07:59:21;98502.81;;;2.01;100.00
21504;BME280;10913;51.992;9.228;2023-03-08T08:01:47;98511.50;;;2.08;100.00
21504;BME280;10913;51.992;9.228;2023-03-08T08:04:12;98500.22;;;2.09;100.00
21504;BME280;10913;51.992;9.228;2023-03-08T08:06:38;98506.28;;;2.10;100.00
21504;BME280;10913;51.992;9.228;2023-03-08T08:09:05;98508.91;;;2.14;100.00
21504;BME280;10913;51.992;9.228;2023-03-08T08:11:31;98501.09;;;2.19;100.00
21504;BME280;10913;51.992;9.228;2023-03-08T08:13:56;98502.78;;;2.21;100.00
21504;BME280;10913;51.992;9.228;2023-03-08T08:16:21;98508.00;;;2.23;100.00
21504;BME280;10913;51.992;9.228;2023-03-08T08:18:47;98503.66;;;2.26;100.00
21504;BME280;10913;51.992;9.228;2023-03-08T08:21:14;98501.91;;;2.30;100.00
21504;BME280;10913;51.992;9.228;2023-03-08T08:23:41;98499.31;;;2.34;100.00
21504;BME280;10913;51.992;9.228;2023-03-08T08:26:09;98496.66;;;2.40;100.00
21504;BME280;10913;51.992;9.228;2023-03-08T08:28:36;98487.97;;;2.45;100.00
21504;BME280;10913;51.992;9.228;2023-03-08T08:31:07;98495.78;;;2.46;100.00
21504;BME280;10913;51.992;9.228;2023-03-08T08:33:33;98486.22;;;2.50;100.00
21504;BME280;10913;51.992;9.228;2023-03-08T08:35:59;98484.47;;;2.52;100.00
21504;BME280;10913;51.992;9.228;2023-03-08T08:38:25;98479.25;;;2.55;100.00
21504;BME280;10913;51.992;9.228;2023-03-08T08:40:51;98478.38;;;2.56;100.00
21504;BME280;10913;51.992;9.228;2023-03-08T08:43:17;98481.84;;;2.55;100.00
21504;BME280;10913;51.992;9.228;2023-03-08T08:45:46;98482.72;;;2.54;100.00
21504;BME280;10913;51.992;9.228;2023-03-08T08:48:13;98475.78;;;2.56;100.00
21504;BME280;10913;51.992;9.228;2023-03-08T08:50:41;98467.06;;;2.58;100.00
21504;BME280;10913;51.992;9.228;2023-03-08T08:53:08;98467.91;;;2.60;100.00
21504;BME280;10913;51.992;9.228;2023-03-08T08:55:34;98460.09;;;2.62;100.00
21504;BME280;10913;51.992;9.228;2023-03-08T08:58:01;98458.31;;;2.67;100.00
21504;BME280;10913;51.992;9.228;2023-03-08T09:00:27;98461.78;;;2.69;100.00
21504;BME280;10913;51.992;9.228;2023-03-08T09:02:52;98454.84;;;2.68;100.00
21504;BME280;10913;51.992;9.228;2023-03-08T09:05:18;98447.88;;;2.70;100.00
21504;BME280;10913;51.992;9.228;2023-03-08T09:07:43;98447.88;;;2.70;100.00
21504;BME280;10913;51.992;9.228;2023-03-08T09:10:09;98439.22;;;2.66;100.00
21504;BME280;10913;51.992;9.228;2023-03-08T09:12:35;98447.03;;;2.66;100.00
21504;BME280;10913;51.992;9.228;2023-03-08T09:15:00;98443.56;;;2.66;100.00
21504;BME280;10913;51.992;9.228;2023-03-08T09:17:26;98431.41;;;2.66;100.00
21504;BME280;10913;51.992;9.228;2023-03-08T09:19:51;98427.06;;;2.67;100.00
21504;BME280;10913;51.992;9.228;2023-03-08T09:22:16;98425.31;;;2.69;100.00
21504;BME280;10913;51.992;9.228;2023-03-08T09:24:43;98415.72;;;2.72;100.00
21504;BME280;10913;51.992;9.228;2023-03-08T09:27:10;98416.59;;;2.76;100.00
21504;BME280;10913;51.992;9.228;2023-03-08T09:29:36;98413.09;;;2.77;100.00
21504;BME280;10913;51.992;9.228;2023-03-08T09:32:02;98416.53;;;2.82;100.00
21504;BME280;10913;51.992;9.228;2023-03-08T09:34:28;98405.22;;;2.86;100.00
21504;BME280;10913;51.992;9.228;2023-03-08T09:36:53;98408.66;;;2.90;100.00
21504;BME280;10913;51.992;9.228;2023-03-08T09:39:19;98406.06;;;2.91;100.00
21504;BME280;10913;51.992;9.228;2023-03-08T09:41:50;98399.09;;;2.93;100.00
21504;BME280;10913;51.992;9.228;2023-03-08T09:47:29;98387.78;;;2.94;100.00
21504;BME280;10913;51.992;9.228;2023-03-08T09:56:01;98372.91;;;3.04;100.00
21504;BME280;10913;51.992;9.228;2023-03-08T10:01:01;98371.13;;;3.10;100.00
21504;BME280;10913;51.992;9.228;2023-03-08T10:06:33;98360.66;;;3.17;100.00
21504;BME280;10913;51.992;9.228;2023-03-08T10:09:34;98351.91;;;3.21;100.00
21504;BME280;10913;51.992;9.228;2023-03-08T10:12:26;98341.47;;;3.21;100.00
21504;BME280;10913;51.992;9.228;2023-03-08T10:15:18;98338.91;;;3.16;100.00
21504;BME280;10913;51.992;9.228;2023-03-08T10:20:33;98335.47;;;3.14;100.00
21504;BME280;10913;51.992;9.228;2023-03-08T10:23:02;98320.88;;;2.90;100.00
21504;BME280;10913;51.992;9.228;2023-03-08T10:25:32;98322.63;;;2.88;100.00
21504;BME280;10913;51.992;9.228;2023-03-08T10:28:00;98317.41;;;2.91;100.00
21504;BME280;10913;51.992;9.228;2023-03-08T10:30:37;98328.72;;;2.89;99.92
21504;BME280;10913;51.992;9.228;2023-03-08T10:33:08;98325.22;;;2.90;100.00
21504;BME280;10913;51.992;9.228;2023-03-08T10:35:54;98320.88;;;2.90;100.00
21504;BME280;10913;51.992;9.228;2023-03-08T10:38:20;98314.78;;;2.90;100.00
21504;BME280;10913;51.992;9.228;2023-03-08T10:40:46;98324.34;;;2.92;100.00
21504;BME280;10913;51.992;9.228;2023-03-08T10:43:25;98322.59;;;2.94;100.00
21504;BME280;10913;51.992;9.228;2023-03-08T10:46:03;98324.31;;;2.98;100.00
21504;BME280;10913;51.992;9.228;2023-03-08T10:48:29;98332.94;;;3.02;100.00
21504;BME280;10913;51.992;9.228;2023-03-08T10:51:00;98325.97;;;3.05;100.00
21504;BME280;10913;51.992;9.228;2023-03-08T10:53:25;98329.41;;;3.07;100.00
21504;BME280;10913;51.992;9.228;2023-03-08T10:55:54;98328.56;;;3.07;98.84
21504;BME280;10913;51.992;9.228;2023-03-08T11:01:01;98326.94;;;2.94;98.68
21504;BME280;10913;51.992;9.228;2023-03-08T11:03:27;98336.50;;;2.92;98.20
21504;BME280;10913;51.992;9.228;2023-03-08T11:06:05;98326.97;;;2.89;99.41
21504;BME280;10913;51.992;9.228;2023-03-08T11:08:38;98324.34;;;2.89;100.00
21504;BME280;10913;51.992;9.228;2023-03-08T11:11:10;98320.00;;;2.91;100.00
21504;BME280;10913;51.992;9.228;2023-03-08T11:13:38;98322.63;;;2.88;100.00
21504;BME280;10913;51.992;9.228;2023-03-08T11:24:18;98299.31;;;2.68;100.00
21504;BME280;10913;51.992;9.228;2023-03-08T11:26:51;98306.25;;;2.71;100.00
21504;BME280;10913;51.992;9.228;2023-03-08T11:45:26;98299.69;;;3.27;98.12
21504;BME280;10913;51.992;9.228;2023-03-08T11:48:06;98307.44;;;3.33;98.70
21504;BME280;10913;51.992;9.228;2023-03-08T11:50:41;98303.09;;;3.32;99.40
21504;BME280;10913;51.992;9.228;2023-03-08T11:58:21;98285.66;;;3.37;100.00
21504;BME280;10913;51.992;9.228;2023-03-08T12:00:50;98281.41;;;3.28;100.00
21504;BME280;10913;51.992;9.228;2023-03-08T12:03:21;98278.81;;;3.24;100.00
21504;BME280;10913;51.992;9.228;2023-03-08T12:05:54;98283.13;;;3.31;100.00
21504;BME280;10913;51.992;9.228;2023-03-08T12:08:24;98263.19;;;3.21;100.00
21504;BME280;10913;51.992;9.228;2023-03-08T12:10:59;98254.59;;;3.16;100.00
21504;BME280;10913;51.992;9.228;2023-03-08T12:16:25;98246.00;;;3.01;100.00
21504;BME280;10913;51.992;9.228;2023-03-08T12:18:55;98251.28;;;2.98;100.00
21504;BME280;10913;51.992;9.228;2023-03-08T12:21:37;98263.50;;;2.93;100.00
21504;BME280;10913;51.992;9.228;2023-03-08T12:27:13;98268.69;;;2.96;100.00
21504;BME280;10913;51.992;9.228;2023-03-08T12:29:51;98262.63;;;2.94;100.00
21504;BME280;10913;51.992;9.228;2023-03-08T12:32:19;98260.00;;;2.94;100.00
21504;BME280;10913;51.992;9.228;2023-03-08T12:34:47;98247.81;;;2.96;100.00
21504;BME280;10913;51.992;9.228;2023-03-08T12:37:24;98242.66;;;2.90;100.00
21504;BME280;10913;51.992;9.228;2023-03-08T12:39:55;98228.78;;;2.85;100.00
21504;BME280;10913;51.992;9.228;2023-03-08T12:45:08;98239.25;;;2.82;100.00
21504;BME280;10913;51.992;9.228;2023-03-08T12:47:34;98238.38;;;2.83;100.00
21504;BME280;10913;51.992;9.228;2023-03-08T12:50:08;98236.72;;;2.76;100.00
21504;BME280;10913;51.992;9.228;2023-03-08T12:52:34;98234.13;;;2.74;100.00
21504;BME280;10913;51.992;9.228;2023-03-08T12:57:34;98231.47;;;2.78;100.00
21504;BME280;10913;51.992;9.228;2023-03-08T13:00:29;98237.63;;;2.69;100.00
21504;BME280;10913;51.992;9.228;2023-03-08T13:03:27;98234.19;;;2.64;100.00
21504;BME280;10913;51.992;9.228;2023-03-08T13:05:49;98233.41;;;2.54;100.00
21504;BME280;10913;51.992;9.228;2023-03-08T13:10:56;98216.03;;;2.58;100.00
21504;BME280;10913;51.992;9.228;2023-03-08T13:16:19;98212.56;;;2.56;100.00
21504;BME280;10913;51.992;9.228;2023-03-08T13:18:47;98204.75;;;2.54;100.00
21504;BME280;10913;51.992;9.228;2023-03-08T13:21:33;98206.47;;;2.57;100.00
21504;BME280;10913;51.992;9.228;2023-03-08T13:29:34;98207.31;;;2.59;100.00
21504;BME280;10913;51.992;9.228;2023-03-08T13:32:06;98206.41;;;2.61;100.00
21504;BME280;10913;51.992;9.228;2023-03-08T13:34:35;98205.53;;;2.61;100.00
21504;BME280;10913;51.992;9.228;2023-03-08T13:37:00;98205.53;;;2.64;100.00
21504;BME280;10913;51.992;9.228;2023-03-08T13:39:30;98211.56;;;2.69;100.00
21504;BME280;10913;51.992;9.228;2023-03-08T13:42:11;98202.00;;;2.69;100.00
21504;BME280;10913;51.992;9.228;2023-03-08T13:44:37;98199.41;;;2.69;100.00
21504;BME280;10913;51.992;9.228;2023-03-08T13:47:20;98207.22;;;2.68;100.00
21504;BME280;10913;51.992;9.228;2023-03-08T13:49:47;98202.88;;;2.70;100.00
21504;BME280;10913;51.992;9.228;2023-03-08T13:52:20;98194.19;;;2.68;100.00
21504;BME280;10913;51.992;9.228;2023-03-08T13:54:50;98202.88;;;2.70;100.00
21504;BME280;10913;51.992;9.228;2023-03-08T13:57:22;98192.44;;;2.70;100.00
21504;BME280;10913;51.992;9.228;2023-03-08T13:59:54;98187.22;;;2.70;100.00
21504;BME280;10913;51.992;9.228;2023-03-08T14:02:22;98182.91;;;2.67;100.00
21504;BME280;10913;51.992;9.228;2023-03-08T14:04:51;98189.03;;;2.62;100.00
21504;BME280;10913;51.992;9.228;2023-03-08T14:09:47;98190.00;;;2.52;100.00
21504;BME280;10913;51.992;9.228;2023-03-08T14:12:16;98186.53;;;2.51;100.00
21504;BME280;10913;51.992;9.228;2023-03-08T14:14:43;98196.97;;;2.48;100.00
21504;BME280;10913;51.992;9.228;2023-03-08T14:17:20;98197.84;;;2.49;100.00
21504;BME280;10913;51.992;9.228;2023-03-08T14:19:51;98193.50;;;2.48;100.00
21504;BME280;10913;51.992;9.228;2023-03-08T14:22:17;98187.44;;;2.46;100.00